^^
Saratoga-Weather Station Historical Data
Daily Summary for September 10, 2021 Units:  Both    English   Metric
Daily Weekly Monthly Yearly Custom
  High: Low: Average:
Temperature: 77.4 °F /  25.2 °C 56.3 °F /  13.5 °C 65.3 °F /  18.5 °C
Dew Point: 63.1 °F /  17.3 °C 53.8 °F /  12.1 °C 57.9 °F /  14.4 °C
Humidity: 94% 50% 78%
Wind Speed: 16.1mph /  25.9km/h - 1.1mph /  1.7km/h
Wind Gust: 18mph /  29km/h - -
Wind- - SSW
Pressure: 30.1 in /  1019.3 hPa 29.9 in /  1011.9 hPa -
Precipitation: 0.22 in /  5.6 mm    
Historical Graphs
 
 
Tabular Data for September 10, 2021
Time Temperature Dew Point Pressure Wind Wind Speed Wind Gust Humidity Rainfall Rate (Hourly) solar
00:02 64.2 °F /  17.9 °C 57.2 °F /  14 °C 30.1in /  1019.3hPa Calm     78% 0in /  0.0mm 0 W/m2
00:07 63.9 °F /  17.7 °C 56.8 °F /  13.8 °C 30.1in /  1019.3hPa Calm     78% 0in /  0.0mm 0 W/m2
00:12 63.7 °F /  17.6 °C 57 °F /  13.9 °C 30.1in /  1019.3hPa SW 2.9mph /  4.7km/h 3mph /  4.8km/h 79% 0in /  0.0mm 0 W/m2
00:17 63.3 °F /  17.4 °C 56.3 °F /  13.5 °C 30.1in /  1019.3hPa Calm   2mph /  3.2km/h 78% 0in /  0.0mm 0 W/m2
00:22 63.3 °F /  17.4 °C 56.7 °F /  13.7 °C 30.1in /  1019.3hPa Calm   1mph /  1.6km/h 79% 0in /  0.0mm 0 W/m2
00:27 63.1 °F /  17.3 °C 56.5 °F /  13.6 °C 30.1in /  1019.3hPa Calm     79% 0in /  0.0mm 0 W/m2
00:32 63 °F /  17.2 °C 56.3 °F /  13.5 °C 30.1in /  1019.3hPa Calm     79% 0in /  0.0mm 0 W/m2
00:37 62.8 °F /  17.1 °C 56.1 °F /  13.4 °C 30.1in /  1019.3hPa Calm     79% 0in /  0.0mm 0 W/m2
00:42 62.4 °F /  16.9 °C 56.1 °F /  13.4 °C 30.1in /  1019.3hPa Calm     80% 0in /  0.0mm 0 W/m2
00:47 62.2 °F /  16.8 °C 55.9 °F /  13.3 °C 30.1in /  1019.3hPa Calm     80% 0in /  0.0mm 0 W/m2
00:52 62.1 °F /  16.7 °C 56.1 °F /  13.4 °C 30.1in /  1019.3hPa Calm     81% 0in /  0.0mm 0 W/m2
00:57 61.9 °F /  16.6 °C 56.3 °F /  13.5 °C 30.1in /  1019.0hPa Calm     82% 0in /  0.0mm 0 W/m2
01:02 61.5 °F /  16.4 °C 55.9 °F /  13.3 °C 30.1in /  1019.0hPa Calm     82% 0in /  0.0mm 0 W/m2
01:07 61.3 °F /  16.3 °C 55.8 °F /  13.2 °C 30.1in /  1019.0hPa Calm     82% 0in /  0.0mm 0 W/m2
01:12 61.2 °F /  16.2 °C 55.6 °F /  13.1 °C 30.1in /  1019.0hPa Calm     82% 0in /  0.0mm 0 W/m2
01:17 61 °F /  16.1 °C 55.8 °F /  13.2 °C 30.1in /  1019.0hPa Calm     83% 0in /  0.0mm 0 W/m2
01:22 60.6 °F /  15.9 °C 55.8 °F /  13.2 °C 30.1in /  1019.0hPa Calm     84% 0in /  0.0mm 0 W/m2
01:27 60.4 °F /  15.8 °C 55.6 °F /  13.1 °C 30.1in /  1019.0hPa Calm     84% 0in /  0.0mm 0 W/m2
01:32 60.3 °F /  15.7 °C 55.4 °F /  13 °C 30.1in /  1019.0hPa Calm     84% 0in /  0.0mm 0 W/m2
01:37 60.1 °F /  15.6 °C 55.2 °F /  12.9 °C 30.1in /  1019.0hPa Calm     84% 0in /  0.0mm 0 W/m2
01:42 60.1 °F /  15.6 °C 55.6 °F /  13.1 °C 30.1in /  1019.0hPa Calm     85% 0in /  0.0mm 0 W/m2
01:47 59.9 °F /  15.5 °C 55.4 °F /  13 °C 30.1in /  1019.0hPa Calm     85% 0in /  0.0mm 0 W/m2
01:52 59.9 °F /  15.5 °C 55.8 °F /  13.2 °C 30.1in /  1019.0hPa Calm     86% 0in /  0.0mm 0 W/m2
01:57 59.9 °F /  15.5 °C 55.8 °F /  13.2 °C 30.1in /  1019.0hPa Calm     86% 0in /  0.0mm 0 W/m2
02:02 59.9 °F /  15.5 °C 55.8 °F /  13.2 °C 30.1in /  1019.0hPa Calm     86% 0in /  0.0mm 0 W/m2
02:07 59.7 °F /  15.4 °C 55.6 °F /  13.1 °C 30.1in /  1019.0hPa Calm     86% 0in /  0.0mm 0 W/m2
02:12 59.7 °F /  15.4 °C 55.6 °F /  13.1 °C 30.1in /  1019.0hPa Calm     86% 0in /  0.0mm 0 W/m2
02:17 59.7 °F /  15.4 °C 55.8 °F /  13.2 °C 30.1in /  1019.0hPa Calm     87% 0in /  0.0mm 0 W/m2
02:22 59.7 °F /  15.4 °C 55.6 °F /  13.1 °C 30.1in /  1018.6hPa Calm     86% 0in /  0.0mm 0 W/m2
02:27 59.5 °F /  15.3 °C 55.6 °F /  13.1 °C 30.1in /  1018.6hPa Calm     87% 0in /  0.0mm 0 W/m2
02:33 59.5 °F /  15.3 °C 55.6 °F /  13.1 °C 30.1in /  1018.6hPa Calm     87% 0in /  0.0mm 0 W/m2
02:38 59.4 °F /  15.2 °C 55.4 °F /  13 °C 30.1in /  1018.6hPa Calm     87% 0in /  0.0mm 0 W/m2
02:43 59.4 °F /  15.2 °C 55.4 °F /  13 °C 30.1in /  1018.6hPa Calm     87% 0in /  0.0mm 0 W/m2
02:48 59.2 °F /  15.1 °C 55.4 °F /  13 °C 30.1in /  1018.6hPa Calm     87% 0in /  0.0mm 0 W/m2
02:53 59 °F /  15 °C 55.2 °F /  12.9 °C 30.1in /  1018.6hPa Calm     87% 0in /  0.0mm 0 W/m2
02:58 58.8 °F /  14.9 °C 55 °F /  12.8 °C 30.1in /  1018.3hPa Calm     87% 0in /  0.0mm 0 W/m2
03:03 58.6 °F /  14.8 °C 54.9 °F /  12.7 °C 30.1in /  1018.3hPa Calm     87% 0in /  0.0mm 0 W/m2
03:08 58.5 °F /  14.7 °C 54.7 °F /  12.6 °C 30.1in /  1018.6hPa Calm     87% 0in /  0.0mm 0 W/m2
03:13 58.5 °F /  14.7 °C 54.7 °F /  12.6 °C 30.1in /  1018.3hPa Calm     87% 0in /  0.0mm 0 W/m2
03:18 58.3 °F /  14.6 °C 54.7 °F /  12.6 °C 30.1in /  1018.3hPa Calm     88% 0in /  0.0mm 0 W/m2
03:23 58.1 °F /  14.5 °C 54.5 °F /  12.5 °C 30.1in /  1018.3hPa Calm     88% 0in /  0.0mm 0 W/m2
03:28 58.1 °F /  14.5 °C 54.5 °F /  12.5 °C 30.1in /  1018.3hPa Calm     88% 0in /  0.0mm 0 W/m2
03:33 57.9 °F /  14.4 °C 54.3 °F /  12.4 °C 30.1in /  1018.3hPa Calm     88% 0in /  0.0mm 0 W/m2
03:38 57.7 °F /  14.3 °C 54.1 °F /  12.3 °C 30.1in /  1018.3hPa Calm     88% 0in /  0.0mm 0 W/m2
03:43 57.7 °F /  14.3 °C 54.1 °F /  12.3 °C 30.1in /  1018.0hPa Calm     88% 0in /  0.0mm 0 W/m2
03:48 57.6 °F /  14.2 °C 54 °F /  12.2 °C 30.1in /  1018.0hPa Calm     88% 0in /  0.0mm 0 W/m2
03:53 57.4 °F /  14.1 °C 54.1 °F /  12.3 °C 30.1in /  1018.0hPa Calm     89% 0in /  0.0mm 0 W/m2
03:58 57.4 °F /  14.1 °C 54.1 °F /  12.3 °C 30.1in /  1018.0hPa Calm     89% 0in /  0.0mm 0 W/m2
04:03 57 °F /  13.9 °C 53.8 °F /  12.1 °C 30.1in /  1018.0hPa Calm     89% 0in /  0.0mm 0 W/m2
04:08 57 °F /  13.9 °C 54.1 °F /  12.3 °C 30.1in /  1017.6hPa Calm     90% 0in /  0.0mm 0 W/m2
04:13 57 °F /  13.9 °C 54.1 °F /  12.3 °C 30.1in /  1017.6hPa Calm     90% 0in /  0.0mm 0 W/m2
04:18 56.8 °F /  13.8 °C 54 °F /  12.2 °C 30.1in /  1017.6hPa Calm     90% 0in /  0.0mm 0 W/m2
04:23 56.8 °F /  13.8 °C 54 °F /  12.2 °C 30.1in /  1017.6hPa Calm     90% 0in /  0.0mm 0 W/m2
04:28 56.8 °F /  13.8 °C 54 °F /  12.2 °C 30.1in /  1017.6hPa Calm     90% 0in /  0.0mm 0 W/m2
04:33 56.7 °F /  13.7 °C 54.1 °F /  12.3 °C 30.1in /  1017.6hPa Calm     91% 0in /  0.0mm 0 W/m2
04:38 56.7 °F /  13.7 °C 54.1 °F /  12.3 °C 30.1in /  1017.6hPa Calm     91% 0in /  0.0mm 0 W/m2
04:43 56.7 °F /  13.7 °C 54.1 °F /  12.3 °C 30.1in /  1017.6hPa Calm     91% 0in /  0.0mm 0 W/m2
04:48 56.7 °F /  13.7 °C 54.3 °F /  12.4 °C 30in /  1017.3hPa Calm     92% 0in /  0.0mm 0 W/m2
04:53 56.8 °F /  13.8 °C 54.5 °F /  12.5 °C 30.1in /  1017.6hPa Calm     92% 0in /  0.0mm 0 W/m2
04:58 56.8 °F /  13.8 °C 54.5 °F /  12.5 °C 30in /  1017.3hPa Calm     92% 0in /  0.0mm 0 W/m2
05:03 57 °F /  13.9 °C 54.7 °F /  12.6 °C 30in /  1017.3hPa SW 0.9mph /  1.4km/h 2mph /  3.2km/h 92% 0in /  0.0mm 0 W/m2
05:08 57.2 °F /  14 °C 54.9 °F /  12.7 °C 30in /  1017.3hPa Calm   1mph /  1.6km/h 92% 0in /  0.0mm 0 W/m2
05:13 57.4 °F /  14.1 °C 55 °F /  12.8 °C 30in /  1017.3hPa Calm   2mph /  3.2km/h 92% 0in /  0.0mm 0 W/m2
05:18 57.4 °F /  14.1 °C 54.9 °F /  12.7 °C 30in /  1017.3hPa Calm     91% 0in /  0.0mm 0 W/m2
05:23 57.2 °F /  14 °C 54.7 °F /  12.6 °C 30in /  1017.3hPa Calm     91% 0in /  0.0mm 0 W/m2
05:28 57 °F /  13.9 °C 54.5 °F /  12.5 °C 30in /  1017.3hPa Calm     91% 0in /  0.0mm 0 W/m2
05:33 57 °F /  13.9 °C 54.5 °F /  12.5 °C 30in /  1017.3hPa Calm     91% 0in /  0.0mm 0 W/m2
05:38 56.8 °F /  13.8 °C 54.3 °F /  12.4 °C 30in /  1017.3hPa Calm     91% 0in /  0.0mm 0 W/m2
05:43 56.8 °F /  13.8 °C 54.3 °F /  12.4 °C 30in /  1017.3hPa Calm     91% 0in /  0.0mm 5 W/m2
05:48 56.7 °F /  13.7 °C 54.1 °F /  12.3 °C 30in /  1017.3hPa Calm     91% 0in /  0.0mm 7 W/m2
05:53 56.5 °F /  13.6 °C 54 °F /  12.2 °C 30in /  1016.9hPa Calm     91% 0in /  0.0mm 11 W/m2
05:58 56.5 °F /  13.6 °C 54.1 °F /  12.3 °C 30in /  1017.3hPa Calm     92% 0in /  0.0mm 14 W/m2
06:03 56.3 °F /  13.5 °C 54 °F /  12.2 °C 30in /  1017.3hPa Calm     92% 0in /  0.0mm 19 W/m2
06:08 56.3 °F /  13.5 °C 54 °F /  12.2 °C 30in /  1017.3hPa SW 2mph /  3.2km/h 2mph /  3.2km/h 92% 0in /  0.0mm 25 W/m2
06:13 56.5 °F /  13.6 °C 54.5 °F /  12.5 °C 30in /  1017.3hPa West 0.9mph /  1.4km/h 3mph /  4.8km/h 93% 0in /  0.0mm 26 W/m2
06:18 56.5 °F /  13.6 °C 54.5 °F /  12.5 °C 30in /  1017.3hPa Calm   1mph /  1.6km/h 93% 0in /  0.0mm 28 W/m2
06:23 56.7 °F /  13.7 °C 54.7 °F /  12.6 °C 30in /  1016.9hPa Calm   3mph /  4.8km/h 93% 0in /  0.0mm 28 W/m2
06:28 56.7 °F /  13.7 °C 54.7 °F /  12.6 °C 30in /  1017.3hPa Calm     93% 0in /  0.0mm 28 W/m2
06:33 56.8 °F /  13.8 °C 54.5 °F /  12.5 °C 30in /  1017.3hPa Calm     92% 0in /  0.0mm 30 W/m2
06:38 56.8 °F /  13.8 °C 54.5 °F /  12.5 °C 30in /  1017.3hPa Calm     92% 0in /  0.0mm 32 W/m2
06:43 56.8 °F /  13.8 °C 54.5 °F /  12.5 °C 30in /  1017.3hPa Calm     92% 0in /  0.0mm 32 W/m2
06:48 56.8 °F /  13.8 °C 54.5 °F /  12.5 °C 30in /  1017.3hPa Calm     92% 0in /  0.0mm 33 W/m2
06:53 57 °F /  13.9 °C 54.7 °F /  12.6 °C 30in /  1017.3hPa Calm     92% 0in /  0.0mm 33 W/m2
06:58 57 °F /  13.9 °C 55 °F /  12.8 °C 30in /  1017.3hPa Calm     93% 0in /  0.0mm 35 W/m2
07:03 57 °F /  13.9 °C 55 °F /  12.8 °C 30in /  1017.3hPa Calm     93% 0in /  0.0mm 42 W/m2
07:08 57.2 °F /  14 °C 55.2 °F /  12.9 °C 30in /  1017.3hPa Calm     93% 0in /  0.0mm 47 W/m2
07:13 57.4 °F /  14.1 °C 55.4 °F /  13 °C 30in /  1017.3hPa Calm     93% 0in /  0.0mm 56 W/m2
07:18 57.6 °F /  14.2 °C 55.6 °F /  13.1 °C 30in /  1017.3hPa Calm     93% 0in /  0.0mm 58 W/m2
07:23 57.7 °F /  14.3 °C 55.8 °F /  13.2 °C 30in /  1017.3hPa Calm     93% 0in /  0.0mm 65 W/m2
07:28 57.9 °F /  14.4 °C 55.9 °F /  13.3 °C 30in /  1017.3hPa Calm     93% 0in /  0.0mm 67 W/m2
07:33 58.1 °F /  14.5 °C 56.1 °F /  13.4 °C 30in /  1017.3hPa Calm     93% 0in /  0.0mm 69 W/m2
07:38 58.5 °F /  14.7 °C 56.1 °F /  13.4 °C 30in /  1017.3hPa Calm     92% 0in /  0.0mm 76 W/m2
07:43 58.6 °F /  14.8 °C 56.3 °F /  13.5 °C 30in /  1017.3hPa Calm   2mph /  3.2km/h 92% 0in /  0.0mm 81 W/m2
07:48 59.2 °F /  15.1 °C 56.8 °F /  13.8 °C 30in /  1017.3hPa Calm     92% 0in /  0.0mm 128 W/m2
07:53 59.5 °F /  15.3 °C 56.8 °F /  13.8 °C 30in /  1017.3hPa Calm     91% 0in /  0.0mm 232 W/m2
07:58 60.1 °F /  15.6 °C 57.4 °F /  14.1 °C 30in /  1017.3hPa Calm   1mph /  1.6km/h 91% 0in /  0.0mm 214 W/m2
08:03 60.6 °F /  15.9 °C 57.7 °F /  14.3 °C 30in /  1017.3hPa Calm   1mph /  1.6km/h 90% 0in /  0.0mm 186 W/m2
08:09 61.2 °F /  16.2 °C 57.9 °F /  14.4 °C 30in /  1017.3hPa Calm     89% 0in /  0.0mm 178 W/m2
08:14 61.5 °F /  16.4 °C 57.9 °F /  14.4 °C 30in /  1017.3hPa WNW 0.9mph /  1.4km/h 2mph /  3.2km/h 88% 0in /  0.0mm 116 W/m2
08:19 61.9 °F /  16.6 °C 57.9 °F /  14.4 °C 30in /  1017.3hPa Calm     87% 0in /  0.0mm 79 W/m2
08:24 62.4 °F /  16.9 °C 58.1 °F /  14.5 °C 30in /  1017.3hPa Calm   2mph /  3.2km/h 86% 0in /  0.0mm 95 W/m2
08:29 62.8 °F /  17.1 °C 58.3 °F /  14.6 °C 30in /  1017.3hPa WNW 0.9mph /  1.4km/h 1mph /  1.6km/h 85% 0in /  0.0mm 97 W/m2
08:34 63 °F /  17.2 °C 58.5 °F /  14.7 °C 30in /  1016.9hPa Calm   1mph /  1.6km/h 85% 0in /  0.0mm 104 W/m2
08:39 63.5 °F /  17.5 °C 58.8 °F /  14.9 °C 30in /  1016.9hPa Calm     85% 0in /  0.0mm 113 W/m2
08:44 64 °F /  17.8 °C 59.4 °F /  15.2 °C 30in /  1016.9hPa North 0.9mph /  1.4km/h 1mph /  1.6km/h 85% 0in /  0.0mm 113 W/m2
08:49 64.6 °F /  18.1 °C 59.4 °F /  15.2 °C 30in /  1016.9hPa NE 0.9mph /  1.4km/h 1mph /  1.6km/h 83% 0in /  0.0mm 118 W/m2
08:54 65.1 °F /  18.4 °C 59.5 °F /  15.3 °C 30in /  1016.9hPa ESE 2mph /  3.2km/h 2mph /  3.2km/h 82% 0in /  0.0mm 134 W/m2
08:59 65.5 °F /  18.6 °C 59.5 °F /  15.3 °C 30in /  1016.9hPa Calm   2mph /  3.2km/h 81% 0in /  0.0mm 158 W/m2
09:04 65.8 °F /  18.8 °C 59.2 °F /  15.1 °C 30in /  1016.9hPa Calm   2mph /  3.2km/h 79% 0in /  0.0mm 181 W/m2
09:09 66.2 °F /  19 °C 59.5 °F /  15.3 °C 30in /  1016.9hPa ENE 0.9mph /  1.4km/h 1mph /  1.6km/h 79% 0in /  0.0mm 244 W/m2
09:14 66.7 °F /  19.3 °C 59.4 °F /  15.2 °C 30in /  1016.9hPa ENE 2mph /  3.2km/h 4mph /  6.4km/h 77% 0in /  0.0mm 336 W/m2
09:19 67.1 °F /  19.5 °C 59.4 °F /  15.2 °C 30in /  1016.9hPa NE 2mph /  3.2km/h 3mph /  4.8km/h 76% 0in /  0.0mm 376 W/m2
09:24 66.7 °F /  19.3 °C 58.6 °F /  14.8 °C 30in /  1016.9hPa Calm   4mph /  6.4km/h 75% 0in /  0.0mm 274 W/m2
09:29 66.7 °F /  19.3 °C 59 °F /  15 °C 30in /  1016.9hPa Calm   2mph /  3.2km/h 76% 0in /  0.0mm 250 W/m2
09:34 66.7 °F /  19.3 °C 59.4 °F /  15.2 °C 30in /  1016.9hPa NE 0.9mph /  1.4km/h 2mph /  3.2km/h 77% 0in /  0.0mm 234 W/m2
09:39 66.9 °F /  19.4 °C 59.2 °F /  15.1 °C 30in /  1016.9hPa Calm   2mph /  3.2km/h 76% 0in /  0.0mm 251 W/m2
09:44 67.1 °F /  19.5 °C 59.7 °F /  15.4 °C 30in /  1016.6hPa Calm   3mph /  4.8km/h 77% 0in /  0.0mm 250 W/m2
09:49 67.3 °F /  19.6 °C 59.5 °F /  15.3 °C 30in /  1016.6hPa Calm   1mph /  1.6km/h 76% 0in /  0.0mm 248 W/m2
09:54 66.9 °F /  19.4 °C 59.2 °F /  15.1 °C 30in /  1016.6hPa Calm   1mph /  1.6km/h 76% 0in /  0.0mm 163 W/m2
09:59 66.9 °F /  19.4 °C 59.9 °F /  15.5 °C 30in /  1016.6hPa East 2.9mph /  4.7km/h 3mph /  4.8km/h 78% 0in /  0.0mm 221 W/m2
10:04 67.3 °F /  19.6 °C 59.9 °F /  15.5 °C 30in /  1016.6hPa East 2mph /  3.2km/h 4mph /  6.4km/h 77% 0in /  0.0mm 272 W/m2
10:09 67.5 °F /  19.7 °C 60.1 °F /  15.6 °C 30in /  1016.6hPa Calm   2mph /  3.2km/h 77% 0in /  0.0mm 211 W/m2
10:14 67.8 °F /  19.9 °C 59.9 °F /  15.5 °C 30in /  1016.3hPa East 0.9mph /  1.4km/h 4mph /  6.4km/h 76% 0in /  0.0mm 197 W/m2
10:19 68.5 °F /  20.3 °C 59.9 °F /  15.5 °C 30in /  1016.3hPa ESE 4mph /  6.4km/h 4mph /  6.4km/h 74% 0in /  0.0mm 566 W/m2
10:24 69.1 °F /  20.6 °C 60.4 °F /  15.8 °C 30in /  1016.3hPa NE 0.9mph /  1.4km/h 3mph /  4.8km/h 74% 0in /  0.0mm 462 W/m2
10:29 69.6 °F /  20.9 °C 60.6 °F /  15.9 °C 30in /  1016.3hPa Calm   3mph /  4.8km/h 73% 0in /  0.0mm 541 W/m2
10:34 70.2 °F /  21.2 °C 60.6 °F /  15.9 °C 30in /  1016.3hPa East 2.9mph /  4.7km/h 3mph /  4.8km/h 72% 0in /  0.0mm 417 W/m2
10:39 70.2 °F /  21.2 °C 59.9 °F /  15.5 °C 30in /  1016.3hPa East 2mph /  3.2km/h 3mph /  4.8km/h 70% 0in /  0.0mm 376 W/m2
10:44 70.3 °F /  21.3 °C 59.7 °F /  15.4 °C 30in /  1016.3hPa NNE 0.9mph /  1.4km/h 4mph /  6.4km/h 69% 0in /  0.0mm 527 W/m2
10:49 70.9 °F /  21.6 °C 59.4 °F /  15.2 °C 30in /  1016.3hPa ESE 0.9mph /  1.4km/h 4mph /  6.4km/h 67% 0in /  0.0mm 679 W/m2
10:54 71.6 °F /  22 °C 59.2 °F /  15.1 °C 30in /  1016.3hPa Calm     65% 0in /  0.0mm 710 W/m2
10:59 72.1 °F /  22.3 °C 60.6 °F /  15.9 °C 30in /  1016.3hPa SE 0.9mph /  1.4km/h 4mph /  6.4km/h 67% 0in /  0.0mm 705 W/m2
11:04 72.3 °F /  22.4 °C 59.9 °F /  15.5 °C 30in /  1016.3hPa ESE 2mph /  3.2km/h 5mph /  8km/h 65% 0in /  0.0mm 355 W/m2
11:09 72 °F /  22.2 °C 59.9 °F /  15.5 °C 30in /  1015.9hPa SSE 0.9mph /  1.4km/h 2mph /  3.2km/h 66% 0in /  0.0mm 323 W/m2
11:14 71.8 °F /  22.1 °C 59.7 °F /  15.4 °C 30in /  1015.9hPa NNW 0.9mph /  1.4km/h 3mph /  4.8km/h 66% 0in /  0.0mm 320 W/m2
11:19 71.8 °F /  22.1 °C 59.7 °F /  15.4 °C 30in /  1015.9hPa Calm   1mph /  1.6km/h 66% 0in /  0.0mm 650 W/m2
11:24 72.1 °F /  22.3 °C 59.4 °F /  15.2 °C 30in /  1015.9hPa WNW 2mph /  3.2km/h 3mph /  4.8km/h 64% 0in /  0.0mm 322 W/m2
11:29 72.1 °F /  22.3 °C 59.4 °F /  15.2 °C 30in /  1015.9hPa East 2.9mph /  4.7km/h 10mph /  16.1km/h 64% 0in /  0.0mm 369 W/m2
11:34 71.8 °F /  22.1 °C 59.4 °F /  15.2 °C 30in /  1015.9hPa NW 2mph /  3.2km/h 2mph /  3.2km/h 65% 0in /  0.0mm 461 W/m2
11:39 71.8 °F /  22.1 °C 59.7 °F /  15.4 °C 30in /  1015.6hPa Calm   10mph /  16.1km/h 66% 0in /  0.0mm 499 W/m2
11:44 72 °F /  22.2 °C 59.2 °F /  15.1 °C 30in /  1015.6hPa WNW 0.9mph /  1.4km/h 2mph /  3.2km/h 64% 0in /  0.0mm 325 W/m2
11:49 72 °F /  22.2 °C 59.2 °F /  15.1 °C 30in /  1015.6hPa WNW 2mph /  3.2km/h 3mph /  4.8km/h 64% 0in /  0.0mm 399 W/m2
11:54 72 °F /  22.2 °C 59.5 °F /  15.3 °C 30in /  1015.6hPa East 0.9mph /  1.4km/h 3mph /  4.8km/h 65% 0in /  0.0mm 350 W/m2
11:59 72.1 °F /  22.3 °C 59.7 °F /  15.4 °C 30in /  1015.6hPa Calm   1mph /  1.6km/h 65% 0in /  0.0mm 294 W/m2
12:04 72.3 °F /  22.4 °C 59.5 °F /  15.3 °C 30in /  1015.6hPa Calm   1mph /  1.6km/h 64% 0in /  0.0mm 366 W/m2
12:09 72.3 °F /  22.4 °C 59.5 °F /  15.3 °C 30in /  1015.6hPa WSW 0.9mph /  1.4km/h 1mph /  1.6km/h 64% 0in /  0.0mm 383 W/m2
12:14 72.5 °F /  22.5 °C 59.5 °F /  15.3 °C 30in /  1015.2hPa West 2.9mph /  4.7km/h 4mph /  6.4km/h 64% 0in /  0.0mm 390 W/m2
12:19 72.3 °F /  22.4 °C 59 °F /  15 °C 30in /  1015.2hPa Calm   1mph /  1.6km/h 63% 0in /  0.0mm 485 W/m2
12:24 72.3 °F /  22.4 °C 60.3 °F /  15.7 °C 30in /  1015.2hPa West 0.9mph /  1.4km/h 3mph /  4.8km/h 66% 0in /  0.0mm 512 W/m2
12:29 72.5 °F /  22.5 °C 59.2 °F /  15.1 °C 30in /  1015.2hPa West 0.9mph /  1.4km/h 2mph /  3.2km/h 63% 0in /  0.0mm 512 W/m2
12:34 73 °F /  22.8 °C 60.1 °F /  15.6 °C 30in /  1015.2hPa Calm   3mph /  4.8km/h 64% 0in /  0.0mm 694 W/m2
12:39 73.2 °F /  22.9 °C 58.5 °F /  14.7 °C 30in /  1015.2hPa Calm   2mph /  3.2km/h 60% 0in /  0.0mm 387 W/m2
12:44 73.6 °F /  23.1 °C 59.4 °F /  15.2 °C 30in /  1015.2hPa East 2mph /  3.2km/h 4mph /  6.4km/h 61% 0in /  0.0mm 471 W/m2
12:49 73.8 °F /  23.2 °C 59 °F /  15 °C 30in /  1015.2hPa Calm   2mph /  3.2km/h 60% 0in /  0.0mm 278 W/m2
12:54 73.9 °F /  23.3 °C 58.3 °F /  14.6 °C 30in /  1015.2hPa ESE 2mph /  3.2km/h 2mph /  3.2km/h 58% 0in /  0.0mm 236 W/m2
12:59 73.8 °F /  23.2 °C 58.1 °F /  14.5 °C 30in /  1015.2hPa ENE 0.9mph /  1.4km/h 4mph /  6.4km/h 58% 0in /  0.0mm 232 W/m2
13:04 73.6 °F /  23.1 °C 58.8 °F /  14.9 °C 30in /  1014.9hPa SSW 0.9mph /  1.4km/h 2mph /  3.2km/h 60% 0in /  0.0mm 218 W/m2
13:09 73.4 °F /  23 °C 59.5 °F /  15.3 °C 30in /  1014.9hPa Calm   4mph /  6.4km/h 62% 0in /  0.0mm 243 W/m2
13:14 73.2 °F /  22.9 °C 58.5 °F /  14.7 °C 30in /  1014.9hPa NW 2mph /  3.2km/h 3mph /  4.8km/h 60% 0in /  0.0mm 371 W/m2
13:19 73.2 °F /  22.9 °C 59.4 °F /  15.2 °C 30in /  1014.9hPa West 2mph /  3.2km/h 2mph /  3.2km/h 62% 0in /  0.0mm 828 W/m2
13:24 73.4 °F /  23 °C 58.6 °F /  14.8 °C 30in /  1014.9hPa North 0.9mph /  1.4km/h 1mph /  1.6km/h 60% 0in /  0.0mm 360 W/m2
13:29 73.8 °F /  23.2 °C 57.6 °F /  14.2 °C 30in /  1014.9hPa NE 0.9mph /  1.4km/h 4mph /  6.4km/h 57% 0in /  0.0mm 362 W/m2
13:34 73.8 °F /  23.2 °C 58.1 °F /  14.5 °C 30in /  1014.6hPa Calm   3mph /  4.8km/h 58% 0in /  0.0mm 302 W/m2
13:39 73.9 °F /  23.3 °C 57.7 °F /  14.3 °C 30in /  1014.6hPa East 0.9mph /  1.4km/h 3mph /  4.8km/h 57% 0in /  0.0mm 336 W/m2
13:44 74.7 °F /  23.7 °C 57.4 °F /  14.1 °C 30in /  1014.6hPa ENE 0.9mph /  1.4km/h 3mph /  4.8km/h 55% 0in /  0.0mm 591 W/m2
13:49 75 °F /  23.9 °C 56.1 °F /  13.4 °C 30in /  1014.6hPa East 0.9mph /  1.4km/h 3mph /  4.8km/h 52% 0in /  0.0mm 387 W/m2
13:55 75.7 °F /  24.3 °C 58.5 °F /  14.7 °C 30in /  1014.2hPa East 0.9mph /  1.4km/h 2mph /  3.2km/h 55% 0in /  0.0mm 554 W/m2
14:00 75.9 °F /  24.4 °C 59.2 °F /  15.1 °C 30in /  1014.2hPa NNW 0.9mph /  1.4km/h 2mph /  3.2km/h 56% 0in /  0.0mm 357 W/m2
14:05 75.9 °F /  24.4 °C 58.6 °F /  14.8 °C 30in /  1014.2hPa WNW 2mph /  3.2km/h 4mph /  6.4km/h 55% 0in /  0.0mm 877 W/m2
14:10 75.7 °F /  24.3 °C 57.9 °F /  14.4 °C 30in /  1014.2hPa WNW 4mph /  6.4km/h 4mph /  6.4km/h 54% 0in /  0.0mm 524 W/m2
14:15 75.6 °F /  24.2 °C 57.2 °F /  14 °C 30in /  1014.2hPa Calm   2mph /  3.2km/h 53% 0in /  0.0mm 383 W/m2
14:20 75.7 °F /  24.3 °C 57.9 °F /  14.4 °C 29.9in /  1013.9hPa SSE 0.9mph /  1.4km/h 2mph /  3.2km/h 54% 0in /  0.0mm 536 W/m2
14:25 76.1 °F /  24.5 °C 59.2 °F /  15.1 °C 29.9in /  1013.9hPa NW 2mph /  3.2km/h 3mph /  4.8km/h 56% 0in /  0.0mm 429 W/m2
14:30 76.3 °F /  24.6 °C 58.5 °F /  14.7 °C 29.9in /  1013.9hPa East 0.9mph /  1.4km/h 4mph /  6.4km/h 54% 0in /  0.0mm 592 W/m2
14:35 75.9 °F /  24.4 °C 57 °F /  13.9 °C 29.9in /  1013.9hPa Calm   3mph /  4.8km/h 52% 0in /  0.0mm 383 W/m2
14:40 75.9 °F /  24.4 °C 57.6 °F /  14.2 °C 29.9in /  1013.9hPa ENE 2.9mph /  4.7km/h 5mph /  8km/h 53% 0in /  0.0mm 360 W/m2
14:45 75.9 °F /  24.4 °C 56.5 °F /  13.6 °C 29.9in /  1013.5hPa East 2.9mph /  4.7km/h 4mph /  6.4km/h 51% 0in /  0.0mm 283 W/m2
14:50 75.9 °F /  24.4 °C 59.2 °F /  15.1 °C 29.9in /  1013.5hPa ENE 0.9mph /  1.4km/h 5mph /  8km/h 56% 0in /  0.0mm 299 W/m2
14:55 75.9 °F /  24.4 °C 58.1 °F /  14.5 °C 29.9in /  1013.5hPa Calm   4mph /  6.4km/h 54% 0in /  0.0mm 350 W/m2
15:00 76.3 °F /  24.6 °C 57.9 °F /  14.4 °C 29.9in /  1013.5hPa WSW 0.9mph /  1.4km/h 3mph /  4.8km/h 53% 0in /  0.0mm 323 W/m2
15:05 75.9 °F /  24.4 °C 57.6 °F /  14.2 °C 29.9in /  1013.5hPa Calm   1mph /  1.6km/h 53% 0in /  0.0mm 353 W/m2
15:10 76.1 °F /  24.5 °C 59.7 °F /  15.4 °C 29.9in /  1013.5hPa Calm   2mph /  3.2km/h 57% 0in /  0.0mm 406 W/m2
15:15 76.3 °F /  24.6 °C 57.4 °F /  14.1 °C 29.9in /  1013.5hPa East 2mph /  3.2km/h 7mph /  11.3km/h 52% 0in /  0.0mm 345 W/m2
15:20 76.3 °F /  24.6 °C 57.9 °F /  14.4 °C 29.9in /  1013.5hPa Calm   4mph /  6.4km/h 53% 0in /  0.0mm 396 W/m2
15:25 76.5 °F /  24.7 °C 58.1 °F /  14.5 °C 29.9in /  1013.2hPa West 2mph /  3.2km/h 6mph /  9.7km/h 53% 0in /  0.0mm 432 W/m2
15:30 76.8 °F /  24.9 °C 57.9 °F /  14.4 °C 29.9in /  1013.2hPa Calm   1mph /  1.6km/h 52% 0in /  0.0mm 392 W/m2
15:40 77.4 °F /  25.2 °C 58.3 °F /  14.6 °C 29.9in /  1013.2hPa Calm   3mph /  4.8km/h 52% 0in /  0.0mm 329 W/m2
15:45 76.8 °F /  24.9 °C 56.8 °F /  13.8 °C 29.9in /  1013.2hPa Calm   5mph /  8km/h 50% 0in /  0.0mm 313 W/m2
15:50 77 °F /  25 °C 58.6 °F /  14.8 °C 29.9in /  1013.2hPa ENE 2.9mph /  4.7km/h 4mph /  6.4km/h 53% 0in /  0.0mm 257 W/m2
15:55 76.6 °F /  24.8 °C 57.7 °F /  14.3 °C 29.9in /  1012.9hPa NE 0.9mph /  1.4km/h 4mph /  6.4km/h 52% 0in /  0.0mm 197 W/m2
16:00 76.3 °F /  24.6 °C 57.4 °F /  14.1 °C 29.9in /  1012.9hPa ESE 0.9mph /  1.4km/h 2mph /  3.2km/h 52% 0in /  0.0mm 251 W/m2
16:05 76.1 °F /  24.5 °C 59.2 °F /  15.1 °C 29.9in /  1012.9hPa SE 2mph /  3.2km/h 2mph /  3.2km/h 56% 0in /  0.0mm 220 W/m2
16:10 75.9 °F /  24.4 °C 57.6 °F /  14.2 °C 29.9in /  1012.9hPa Calm   2mph /  3.2km/h 53% 0in /  0.0mm 135 W/m2
16:15 75.9 °F /  24.4 °C 60.6 °F /  15.9 °C 29.9in /  1012.9hPa Calm   1mph /  1.6km/h 59% 0in /  0.0mm 125 W/m2
16:20 75.7 °F /  24.3 °C 60.8 °F /  16 °C 29.9in /  1012.9hPa Calm   2mph /  3.2km/h 60% 0in /  0.0mm 88 W/m2
16:25 75.6 °F /  24.2 °C 61.7 °F /  16.5 °C 29.9in /  1012.9hPa Calm     62% 0in /  0.0mm 74 W/m2
16:30 75.2 °F /  24 °C 62.2 °F /  16.8 °C 29.9in /  1012.9hPa SE 0.9mph /  1.4km/h 1mph /  1.6km/h 64% 0in /  0.0mm 62 W/m2
16:35 74.8 °F /  23.8 °C 61.9 °F /  16.6 °C 29.9in /  1012.9hPa SE 0.9mph /  1.4km/h 1mph /  1.6km/h 64% 0in /  0.0mm 72 W/m2
16:40 74.5 °F /  23.6 °C 61.5 °F /  16.4 °C 29.9in /  1012.5hPa SE 0.9mph /  1.4km/h 2mph /  3.2km/h 64% 0in /  0.0mm 105 W/m2
16:45 73.9 °F /  23.3 °C 61.9 °F /  16.6 °C 29.9in /  1012.5hPa Calm   1mph /  1.6km/h 66% 0in /  0.0mm 105 W/m2
16:50 73.8 °F /  23.2 °C 61.3 °F /  16.3 °C 29.9in /  1012.5hPa Calm     65% 0in /  0.0mm 141 W/m2
16:55 73.8 °F /  23.2 °C 62.1 °F /  16.7 °C 29.9in /  1012.5hPa Calm   1mph /  1.6km/h 67% 0in /  0.0mm 178 W/m2
17:00 73.8 °F /  23.2 °C 62.1 °F /  16.7 °C 29.9in /  1012.5hPa Calm     67% 0in /  0.0mm 243 W/m2
17:05 73.8 °F /  23.2 °C 59.9 °F /  15.5 °C 29.9in /  1012.5hPa Calm     62% 0in /  0.0mm 216 W/m2
17:10 74.1 °F /  23.4 °C 60.3 °F /  15.7 °C 29.9in /  1012.2hPa Calm     62% 0in /  0.0mm 200 W/m2
17:15 74.5 °F /  23.6 °C 62.4 °F /  16.9 °C 29.9in /  1012.2hPa Calm   2mph /  3.2km/h 66% 0in /  0.0mm 292 W/m2
17:20 74.7 °F /  23.7 °C 59.4 °F /  15.2 °C 29.9in /  1012.2hPa Calm     59% 0in /  0.0mm 234 W/m2
17:25 75.2 °F /  24 °C 61.7 °F /  16.5 °C 29.9in /  1011.9hPa Calm   2mph /  3.2km/h 63% 0in /  0.0mm 250 W/m2
17:30 75.4 °F /  24.1 °C 59 °F /  15 °C 29.9in /  1011.9hPa Calm     57% 0in /  0.0mm 315 W/m2
17:35 75.7 °F /  24.3 °C 60.8 °F /  16 °C 29.9in /  1011.9hPa SSE 0.9mph /  1.4km/h 2mph /  3.2km/h 60% 0in /  0.0mm 160 W/m2
17:40 75.7 °F /  24.3 °C 60.8 °F /  16 °C 29.9in /  1011.9hPa Calm     60% 0in /  0.0mm 105 W/m2
17:45 75.7 °F /  24.3 °C 61.9 °F /  16.6 °C 29.9in /  1011.9hPa Calm   1mph /  1.6km/h 62% 0in /  0.0mm 84 W/m2
17:50 75.4 °F /  24.1 °C 63.1 °F /  17.3 °C 29.9in /  1011.9hPa Calm     66% 0in /  0.0mm 76 W/m2
17:55 74.8 °F /  23.8 °C 61.9 °F /  16.6 °C 29.9in /  1011.9hPa WSW 0.9mph /  1.4km/h 2mph /  3.2km/h 64% 0in /  0.0mm 63 W/m2
18:00 74.5 °F /  23.6 °C 63.1 °F /  17.3 °C 29.9in /  1011.9hPa WSW 0.9mph /  1.4km/h 1mph /  1.6km/h 68% 0in /  0.0mm 53 W/m2
18:05 73.9 °F /  23.3 °C 63.1 °F /  17.3 °C 29.9in /  1011.9hPa Calm   1mph /  1.6km/h 69% 0in /  0.0mm 40 W/m2
18:10 73.6 °F /  23.1 °C 62.4 °F /  16.9 °C 29.9in /  1011.9hPa Calm   1mph /  1.6km/h 68% 0in /  0.0mm 33 W/m2
18:15 72.9 °F /  22.7 °C 61.7 °F /  16.5 °C 29.9in /  1011.9hPa WSW 0.9mph /  1.4km/h 3mph /  4.8km/h 68% 0in /  0.0mm 28 W/m2
18:20 72.1 °F /  22.3 °C 61.3 °F /  16.3 °C 29.9in /  1012.2hPa West 2mph /  3.2km/h 4mph /  6.4km/h 69% 0in /  0.0mm 21 W/m2
18:25 70.9 °F /  21.6 °C 61 °F /  16.1 °C 29.9in /  1012.5hPa West 2.9mph /  4.7km/h 6mph /  9.7km/h 71% 0.02in /  0.5mm 23 W/m2
18:30 69.3 °F /  20.7 °C 61 °F /  16.1 °C 29.9in /  1012.5hPa West 4mph /  6.4km/h 4mph /  6.4km/h 75% 0.02in /  0.5mm 19 W/m2
18:35 68 °F /  20 °C 60.8 °F /  16 °C 29.9in /  1012.9hPa WNW 2mph /  3.2km/h 6mph /  9.7km/h 78% 0.02in /  0.5mm 16 W/m2
18:40 67.3 °F /  19.6 °C 61 °F /  16.1 °C 29.9in /  1012.9hPa West 2.9mph /  4.7km/h 6mph /  9.7km/h 80% 0.05in /  1.3mm 12 W/m2
18:45 66.6 °F /  19.2 °C 61 °F /  16.1 °C 29.9in /  1012.9hPa WNW 4mph /  6.4km/h 7mph /  11.3km/h 82% 0.06in /  1.5mm 12 W/m2
18:50 65.7 °F /  18.7 °C 60.4 °F /  15.8 °C 29.9in /  1013.2hPa West 6mph /  9.7km/h 7mph /  11.3km/h 83% 0.08in /  2.0mm 11 W/m2
18:55 64.9 °F /  18.3 °C 60.3 °F /  15.7 °C 29.9in /  1013.5hPa NNW 16.1mph /  25.9km/h 18mph /  29km/h 85% 0.09in /  2.3mm 9 W/m2
19:00 63.7 °F /  17.6 °C 59.7 °F /  15.4 °C 29.9in /  1013.5hPa WSW 8.1mph /  13km/h 14mph /  22.5km/h 87% 0.12in /  3.0mm 9 W/m2
19:05 62.8 °F /  17.1 °C 59.5 °F /  15.3 °C 29.9in /  1013.5hPa WSW 16mph /  25.7km/h 16mph /  25.7km/h 89% 0.16in /  4.1mm 16 W/m2
19:10 62.4 °F /  16.9 °C 59.7 °F /  15.4 °C 29.9in /  1013.5hPa NNW 4.9mph /  7.9km/h 11mph /  17.7km/h 91% 0.17in /  4.3mm 25 W/m2
19:15 62.2 °F /  16.8 °C 59.9 °F /  15.5 °C 29.9in /  1013.5hPa West 6mph /  9.7km/h 11mph /  17.7km/h 92% 0.2in /  5.1mm 44 W/m2
19:20 62.1 °F /  16.7 °C 59.7 °F /  15.4 °C 29.9in /  1013.2hPa WSW 8.1mph /  13km/h 11mph /  17.7km/h 92% 0.21in /  5.3mm 74 W/m2
19:25 62.1 °F /  16.7 °C 59.7 °F /  15.4 °C 29.9in /  1012.9hPa NW 6mph /  9.7km/h 8mph /  12.9km/h 92% 0.2in /  5.1mm 74 W/m2
19:30 62.1 °F /  16.7 °C 60.1 °F /  15.6 °C 29.9in /  1012.9hPa WSW 4mph /  6.4km/h 8mph /  12.9km/h 93% 0.2in /  5.1mm 54 W/m2
19:35 62.1 °F /  16.7 °C 60.1 °F /  15.6 °C 29.9in /  1012.9hPa NW 2mph /  3.2km/h 8mph /  12.9km/h 93% 0.2in /  5.1mm 46 W/m2
19:40 62.1 °F /  16.7 °C 60.1 °F /  15.6 °C 29.9in /  1013.2hPa West 2mph /  3.2km/h 8mph /  12.9km/h 93% 0.17in /  4.3mm 47 W/m2
19:45 62.2 °F /  16.8 °C 60.3 °F /  15.7 °C 29.9in /  1013.2hPa NW 2.9mph /  4.7km/h 8mph /  12.9km/h 93% 0.16in /  4.1mm 51 W/m2
19:50 62.2 °F /  16.8 °C 60.3 °F /  15.7 °C 29.9in /  1013.2hPa WNW 4mph /  6.4km/h 8mph /  12.9km/h 93% 0.14in /  3.6mm 40 W/m2
19:55 62.2 °F /  16.8 °C 60.3 °F /  15.7 °C 29.9in /  1013.2hPa West 6.9mph /  11.1km/h 8mph /  12.9km/h 93% 0.13in /  3.3mm 32 W/m2
20:01 62.2 °F /  16.8 °C 60.3 °F /  15.7 °C 29.9in /  1013.2hPa WSW 8.1mph /  13km/h 8mph /  12.9km/h 93% 0.1in /  2.5mm 25 W/m2
20:06 62.1 °F /  16.7 °C 60.1 °F /  15.6 °C 29.9in /  1013.5hPa WNW 4mph /  6.4km/h 6mph /  9.7km/h 93% 0.06in /  1.5mm 19 W/m2
20:11 61.9 °F /  16.6 °C 59.9 °F /  15.5 °C 29.9in /  1013.2hPa WSW 4mph /  6.4km/h 9mph /  14.5km/h 93% 0.05in /  1.3mm 18 W/m2
20:16 61.9 °F /  16.6 °C 59.5 °F /  15.3 °C 29.9in /  1013.2hPa West 6mph /  9.7km/h 7mph /  11.3km/h 92% 0.02in /  0.5mm 21 W/m2
20:21 61.5 °F /  16.4 °C 59.2 °F /  15.1 °C 29.9in /  1013.5hPa West 2.9mph /  4.7km/h 7mph /  11.3km/h 92% 0.01in /  0.2mm 18 W/m2
20:26 61.3 °F /  16.3 °C 59 °F /  15 °C 29.9in /  1013.5hPa West 6mph /  9.7km/h 7mph /  11.3km/h 92% 0.01in /  0.2mm 16 W/m2
20:31 61.3 °F /  16.3 °C 59 °F /  15 °C 29.9in /  1013.5hPa WNW 4mph /  6.4km/h 8mph /  12.9km/h 92% 0in /  0.0mm 18 W/m2
20:36 61.2 °F /  16.2 °C 58.8 °F /  14.9 °C 29.9in /  1013.2hPa West 2mph /  3.2km/h 7mph /  11.3km/h 92% 0in /  0.0mm 23 W/m2
20:41 61.2 °F /  16.2 °C 58.8 °F /  14.9 °C 29.9in /  1013.2hPa West 4mph /  6.4km/h 7mph /  11.3km/h 92% 0in /  0.0mm 26 W/m2
20:46 61.2 °F /  16.2 °C 58.8 °F /  14.9 °C 29.9in /  1013.2hPa WSW 2mph /  3.2km/h 4mph /  6.4km/h 92% 0in /  0.0mm 33 W/m2
20:51 61.2 °F /  16.2 °C 58.8 °F /  14.9 °C 29.9in /  1013.5hPa SW 2mph /  3.2km/h 3mph /  4.8km/h 92% 0in /  0.0mm 32 W/m2
20:56 61 °F /  16.1 °C 58.6 °F /  14.8 °C 29.9in /  1013.5hPa SW 0.9mph /  1.4km/h 2mph /  3.2km/h 92% 0in /  0.0mm 30 W/m2
21:01 61 °F /  16.1 °C 58.6 °F /  14.8 °C 29.9in /  1013.5hPa Calm     92% 0in /  0.0mm 30 W/m2
21:06 61 °F /  16.1 °C 59 °F /  15 °C 29.9in /  1013.5hPa Calm     93% 0in /  0.0mm 42 W/m2
21:11 61.2 °F /  16.2 °C 59.2 °F /  15.1 °C 29.9in /  1013.5hPa Calm     93% 0in /  0.0mm 37 W/m2
21:16 61.2 °F /  16.2 °C 59.4 °F /  15.2 °C 29.9in /  1013.5hPa Calm     94% 0in /  0.0mm 23 W/m2
21:21 61.2 °F /  16.2 °C 59.2 °F /  15.1 °C 29.9in /  1013.9hPa Calm     93% 0in /  0.0mm 21 W/m2
21:26 61 °F /  16.1 °C 59 °F /  15 °C 29.9in /  1013.9hPa Calm     93% 0in /  0.0mm 16 W/m2
21:31 60.6 °F /  15.9 °C 58.6 °F /  14.8 °C 29.9in /  1013.5hPa Calm     93% 0in /  0.0mm 9 W/m2
21:36 60.6 °F /  15.9 °C 58.6 °F /  14.8 °C 29.9in /  1013.9hPa WSW 2.9mph /  4.7km/h 6mph /  9.7km/h 93% 0in /  0.0mm 5 W/m2
21:41 60.4 °F /  15.8 °C 58.5 °F /  14.7 °C 29.9in /  1013.9hPa West 6mph /  9.7km/h 8mph /  12.9km/h 93% 0in /  0.0mm 5 W/m2
21:46 60.4 °F /  15.8 °C 58.5 °F /  14.7 °C 29.9in /  1013.9hPa WSW 2mph /  3.2km/h 5mph /  8km/h 93% 0in /  0.0mm 0 W/m2
21:51 60.4 °F /  15.8 °C 58.5 °F /  14.7 °C 29.9in /  1013.9hPa West 4mph /  6.4km/h 5mph /  8km/h 93% 0in /  0.0mm 0 W/m2
21:56 60.4 °F /  15.8 °C 58.5 °F /  14.7 °C 30in /  1014.2hPa WNW 4.9mph /  7.9km/h 8mph /  12.9km/h 93% 0in /  0.0mm 0 W/m2
22:01 60.4 °F /  15.8 °C 58.5 °F /  14.7 °C 30in /  1014.2hPa NW 2.9mph /  4.7km/h 4mph /  6.4km/h 93% 0in /  0.0mm 0 W/m2
22:06 60.4 °F /  15.8 °C 58.1 °F /  14.5 °C 30in /  1014.2hPa WNW 0.9mph /  1.4km/h 3mph /  4.8km/h 92% 0in /  0.0mm 0 W/m2
22:11 60.4 °F /  15.8 °C 58.1 °F /  14.5 °C 30in /  1014.2hPa Calm   1mph /  1.6km/h 92% 0in /  0.0mm 0 W/m2
22:16 60.6 °F /  15.9 °C 58.3 °F /  14.6 °C 30in /  1014.2hPa Calm     92% 0in /  0.0mm 0 W/m2
22:21 60.6 °F /  15.9 °C 58.6 °F /  14.8 °C 30in /  1014.2hPa WNW 0.9mph /  1.4km/h 4mph /  6.4km/h 93% 0in /  0.0mm 0 W/m2
22:26 60.4 °F /  15.8 °C 58.1 °F /  14.5 °C 30in /  1014.2hPa Calm   1mph /  1.6km/h 92% 0in /  0.0mm 0 W/m2
22:31 60.6 °F /  15.9 °C 58.6 °F /  14.8 °C 30in /  1014.2hPa Calm     93% 0in /  0.0mm 0 W/m2
22:37 60.4 °F /  15.8 °C 58.5 °F /  14.7 °C 30in /  1014.6hPa NE 0.9mph /  1.4km/h 2mph /  3.2km/h 93% 0in /  0.0mm 0 W/m2
22:42 60.3 °F /  15.7 °C 58.3 °F /  14.6 °C 30in /  1014.6hPa Calm   1mph /  1.6km/h 93% 0in /  0.0mm 0 W/m2
22:47 60.3 °F /  15.7 °C 58.3 °F /  14.6 °C 30in /  1014.6hPa Calm   2mph /  3.2km/h 93% 0in /  0.0mm 0 W/m2
22:52 60.3 °F /  15.7 °C 58.3 °F /  14.6 °C 30in /  1014.9hPa WSW 2.9mph /  4.7km/h 3mph /  4.8km/h 93% 0in /  0.0mm 0 W/m2
22:57 60.1 °F /  15.6 °C 58.1 °F /  14.5 °C 30in /  1014.9hPa WSW 0.9mph /  1.4km/h 3mph /  4.8km/h 93% 0in /  0.0mm 0 W/m2
Juneau County Weather
Compliments of Weather Underground - 4 mb